| time (UTC) | temp F | wind direction | speed MPH | gust MPH | rain 1hr in | rain 24hr in | rain mn in | humidity % | barometer mb |
| 20260902042041 | 50 | 32 | 1.0 | 2.0 | 0.00 | 0.00 | 0.00 | 95 | 1026.8 |
| 20260902041042 | 51 | 32 | 1.0 | 3.0 | 0.00 | 0.00 | 0.00 | 94 | 1026.7 |
| 20260902040040 | 51 | 30 | 2.0 | 3.0 | 0.00 | 0.00 | 0.00 | 94 | 1026.6 |
| 20260902035040 | 51 | 29 | 1.0 | 2.0 | 0.00 | 0.00 | 0.00 | 93 | 1026.7 |
| 20260902034040 | 51 | 276 | 1.0 | 3.0 | 0.00 | 0.00 | 0.00 | 92 | 1026.7 |
| 20260902033040 | 52 | 241 | 3.0 | 5.0 | 0.00 | 0.00 | 0.00 | 91 | 1026.8 |
| 20260902032040 | 53 | 276 | 2.0 | 5.0 | 0.00 | 0.00 | 0.00 | 89 | 1026.8 |
| 20260902031041 | 54 | 220 | 1.0 | 3.0 | 0.00 | 0.00 | 0.00 | 86 | 1027.0 |
| 20260902030040 | 54 | 157 | 1.0 | 3.0 | 0.00 | 0.00 | 0.00 | 86 | 1027.0 |
| 20260902025041 | 53 | 172 | 1.0 | 3.0 | 0.00 | 0.00 | 0.00 | 90 | 1027.0 |
| 20260902023041 | 53 | 201 | 1.0 | 3.0 | 0.00 | 0.00 | 0.00 | 90 | 1026.9 |
| 20260902022040 | 53 | 162 | 1.0 | 3.0 | 0.00 | 0.00 | 0.00 | 90 | 1027.0 |
| 20260902021042 | 53 | 191 | 2.0 | 4.0 | 0.00 | 0.00 | 0.00 | 90 | 1027.0 |
| 20260902020041 | 53 | 276 | 3.0 | 5.0 | 0.00 | 0.00 | 0.00 | 91 | 1027.0 |
| 20260902015042 | 53 | 275 | 4.0 | 5.0 | 0.00 | 0.00 | 0.00 | 89 | 1027.0 |
| 20260902014045 | 54 | 275 | 4.0 | 5.0 | 0.00 | 0.00 | 0.00 | 87 | 1026.9 |
| 20260902013051 | 54 | 278 | 2.0 | 4.0 | 0.00 | 0.00 | 0.00 | 88 | 1026.9 |
| 20260902012055 | 54 | 278 | 2.0 | 4.0 | 0.00 | 0.00 | 0.00 | 89 | 1027.0 |
| 20260902011059 | 54 | 247 | 1.0 | 3.0 | 0.00 | 0.00 | 0.00 | 89 | 1027.1 |
| 20260902010058 | 54 | 233 | 1.0 | 2.0 | 0.00 | 0.00 | 0.00 | 89 | 1027.2 |
| 20260902005103 | 53 | 216 | 1.0 | 2.0 | 0.00 | 0.00 | 0.00 | 88 | 1027.2 |
| 20260902004103 | 53 | 197 | 1.0 | 2.0 | 0.00 | 0.00 | 0.00 | 87 | 1027.1 |
| 20260902003101 | 54 | 199 | 2.0 | 3.0 | 0.00 | 0.00 | 0.00 | 87 | 1027.1 |
| 20260902002101 | 54 | 226 | 2.0 | 3.0 | 0.00 | 0.00 | 0.00 | 85 | 1027.1 |
| 20260902001140 | 55 | 229 | 2.0 | 3.0 | 0.00 | 0.00 | 0.00 | 84 | 1027.0 |
| 20260902000156 | 55 | 172 | 1.0 | 3.0 | 0.00 | 0.00 | 0.00 | 84 | 1027.1 |
| 20260901234152 | 55 | 158 | 1.0 | 2.0 | 0.00 | 0.00 | 0.00 | 84 | 1027.1 |
| 20260901233152 | 55 | 158 | 1.0 | 2.0 | 0.00 | 0.00 | 0.00 | 84 | 1027.1 |
| 20260901232152 | 55 | 169 | 1.0 | 3.0 | 0.00 | 0.00 | 0.00 | 84 | 1027.2 |
| 20260901231147 | 55 | 270 | 2.0 | 4.0 | 0.00 | 0.00 | 0.00 | 83 | 1027.2 |
| 20260901230147 | 55 | 287 | 3.0 | 4.0 | 0.00 | 0.00 | 0.00 | 83 | 1027.2 |
| 20260901225143 | 55 | 285 | 2.0 | 4.0 | 0.00 | 0.00 | 0.00 | 83 | 1027.3 |
| 20260901224140 | 55 | 288 | 3.0 | 5.0 | 0.00 | 0.00 | 0.00 | 83 | 1027.3 |
| 20260901222140 | 55 | 278 | 3.0 | 5.0 | 0.00 | 0.00 | 0.00 | 82 | 1027.4 |
| 20260901221138 | 56 | 282 | 3.0 | 4.0 | 0.00 | 0.00 | 0.00 | 81 | 1027.3 |
| 20260901220139 | 55 | 282 | 3.0 | 4.0 | 0.00 | 0.00 | 0.00 | 82 | 1027.3 |
| 20260901215133 | 55 | 282 | 4.0 | 5.0 | 0.00 | 0.00 | 0.00 | 82 | 1027.5 |
| 20260901214135 | 55 | 290 | 3.0 | 4.0 | 0.00 | 0.00 | 0.00 | 82 | 1027.5 |
| 20260901213132 | 56 | 278 | 3.0 | 5.0 | 0.00 | 0.00 | 0.00 | 80 | 1027.5 |
| 20260901212134 | 57 | 303 | 3.0 | 4.0 | 0.00 | 0.00 | 0.00 | 77 | 1027.5 |
| 20260901210130 | 58 | 300 | 4.0 | 5.0 | 0.00 | 0.00 | 0.00 | 76 | 1027.4 |
| 20260901204127 | 59 | 302 | 5.0 | 6.0 | 0.00 | 0.00 | 0.00 | 74 | 1027.4 |
| 20260901203125 | 59 | 310 | 4.0 | 6.0 | 0.00 | 0.00 | 0.00 | 73 | 1027.4 |
| 20260901202125 | 59 | 294 | 4.0 | 5.0 | 0.00 | 0.00 | 0.00 | 72 | 1027.3 |
| 20260901201128 | 59 | 284 | 4.0 | 5.0 | 0.00 | 0.00 | 0.00 | 73 | 1027.2 |
| 20260901200124 | 59 | 288 | 3.0 | 4.0 | 0.00 | 0.00 | 0.00 | 72 | 1027.1 |
| 20260901195119 | 60 | 280 | 3.0 | 4.0 | 0.00 | 0.00 | 0.00 | 71 | 1027.0 |
| 20260901194118 | 60 | 284 | 4.0 | 5.0 | 0.00 | 0.00 | 0.00 | 71 | 1026.8 |
| 20260901193116 | 60 | 288 | 4.0 | 5.0 | 0.00 | 0.00 | 0.00 | 70 | 1026.9 |
| 20260901192117 | 60 | 285 | 3.0 | 4.0 | 0.00 | 0.00 | 0.00 | 69 | 1026.8 |
| 20260901191115 | 61 | 287 | 2.0 | 3.0 | 0.00 | 0.00 | 0.00 | 68 | 1026.8 |
| 20260901190114 | 61 | 285 | 3.0 | 4.0 | 0.00 | 0.00 | 0.00 | 69 | 1026.7 |
| 20260901185114 | 61 | 278 | 4.0 | 5.0 | 0.00 | 0.00 | 0.00 | 68 | 1026.6 |
| 20260901184110 | 62 | 286 | 3.0 | 5.0 | 0.00 | 0.00 | 0.00 | 66 | 1026.5 |
| 20260901183108 | 63 | 287 | 4.0 | 7.0 | 0.00 | 0.00 | 0.00 | 65 | 1026.4 |
| 20260901182112 | 64 | 292 | 5.0 | 9.0 | 0.00 | 0.00 | 0.00 | 63 | 1026.3 |
| 20260901181106 | 65 | 289 | 5.0 | 8.0 | 0.00 | 0.00 | 0.00 | 61 | 1026.3 |
| 20260901180109 | 66 | 298 | 6.0 | 13.0 | 0.00 | 0.00 | 0.00 | 59 | 1026.3 |
| 20260901175107 | 66 | 255 | 6.0 | 13.0 | 0.00 | 0.00 | 0.00 | 58 | 1026.3 |
| 20260901174105 | 67 | 265 | 4.0 | 6.0 | 0.00 | 0.00 | 0.00 | 57 | 1026.2 |
| 20260901172103 | 66 | 259 | 8.0 | 13.0 | 0.00 | 0.00 | 0.00 | 57 | 1026.2 |
| 20260901171104 | 67 | 280 | 7.0 | 12.0 | 0.00 | 0.00 | 0.00 | 56 | 1026.0 |
| 20260901170100 | 68 | 264 | 6.0 | 10.0 | 0.00 | 0.00 | 0.00 | 53 | 1025.9 |
| 20260901164101 | 69 | 235 | 6.0 | 11.0 | 0.00 | 0.00 | 0.00 | 52 | 1025.8 |
| 20260901163058 | 69 | 224 | 5.0 | 10.0 | 0.00 | 0.00 | 0.00 | 52 | 1025.8 |
| 20260901162059 | 70 | 241 | 6.0 | 10.0 | 0.00 | 0.00 | 0.00 | 50 | 1025.7 |
| 20260901161055 | 70 | 254 | 8.0 | 14.0 | 0.00 | 0.00 | 0.00 | 50 | 1025.7 |
| 20260901160057 | 68 | 272 | 5.0 | 12.0 | 0.00 | 0.00 | 0.00 | 53 | 1025.9 |
| 20260901155054 | 69 | 263 | 8.0 | 12.0 | 0.00 | 0.00 | 0.00 | 51 | 1025.8 |
| 20260901154055 | 69 | 245 | 5.0 | 12.0 | 0.00 | 0.00 | 0.00 | 53 | 1025.9 |
| 20260901153054 | 69 | 259 | 7.0 | 13.0 | 0.00 | 0.00 | 0.00 | 50 | 1025.8 |
| 20260901152053 | 69 | 266 | 8.0 | 13.0 | 0.00 | 0.00 | 0.00 | 51 | 1025.8 |
| 20260901151053 | 70 | 293 | 6.0 | 11.0 | 0.00 | 0.00 | 0.00 | 51 | 1025.7 |
| 20260901145051 | 71 | 262 | 7.0 | 13.0 | 0.00 | 0.00 | 0.00 | 53 | 1025.7 |
| 20260901144052 | 71 | 279 | 8.0 | 14.0 | 0.00 | 0.00 | 0.00 | 53 | 1025.7 |
| 20260901143051 | 71 | 284 | 7.0 | 14.0 | 0.00 | 0.00 | 0.00 | 53 | 1025.7 |
| 20260901142054 | 69 | 284 | 7.0 | 14.0 | 0.00 | 0.00 | 0.00 | 55 | 1025.9 |
| 20260901141052 | 69 | 245 | 8.0 | 14.0 | 0.00 | 0.00 | 0.00 | 56 | 1026.0 |
| 20260901140055 | 69 | 251 | 9.0 | 15.0 | 0.00 | 0.00 | 0.00 | 55 | 1025.9 |
| 20260901135048 | 70 | 268 | 8.0 | 13.0 | 0.00 | 0.01 | 0.00 | 54 | 1025.9 |
| 20260901134049 | 70 | 265 | 8.0 | 13.0 | 0.00 | 0.01 | 0.00 | 56 | 1026.0 |
| 20260901133050 | 70 | 269 | 6.0 | 9.0 | 0.00 | 0.01 | 0.00 | 56 | 1026.1 |
| 20260901132046 | 69 | 310 | 6.0 | 9.0 | 0.00 | 0.02 | 0.00 | 57 | 1026.2 |
| 20260901131044 | 68 | 286 | 7.0 | 10.0 | 0.00 | 0.02 | 0.00 | 61 | 1026.3 |
| 20260901125047 | 66 | 274 | 7.0 | 13.0 | 0.00 | 0.02 | 0.00 | 65 | 1026.6 |
| 20260901124046 | 66 | 267 | 9.0 | 16.0 | 0.00 | 0.02 | 0.00 | 64 | 1026.6 |
| 20260901123045 | 67 | 272 | 9.0 | 15.0 | 0.00 | 0.02 | 0.00 | 62 | 1026.5 |
| 20260901122044 | 68 | 269 | 9.0 | 15.0 | 0.00 | 0.02 | 0.00 | 61 | 1026.4 |
| 20260901121045 | 68 | 284 | 6.0 | 13.0 | 0.00 | 0.02 | 0.00 | 63 | 1026.5 |
| 20260901115042 | 66 | 279 | 6.0 | 10.0 | 0.00 | 0.02 | 0.00 | 65 | 1026.5 |
| 20260901113043 | 65 | 243 | 7.0 | 14.0 | 0.00 | 0.02 | 0.00 | 67 | 1026.7 |
| 20260901112043 | 65 | 254 | 8.0 | 14.0 | 0.00 | 0.02 | 0.00 | 66 | 1026.8 |
| 20260901111047 | 66 | 258 | 9.0 | 13.0 | 0.00 | 0.02 | 0.00 | 66 | 1026.7 |
| 20260901110044 | 67 | 257 | 7.0 | 15.0 | 0.00 | 0.02 | 0.00 | 63 | 1026.6 |
| 20260901105042 | 66 | 264 | 10.0 | 15.0 | 0.00 | 0.02 | 0.00 | 66 | 1026.7 |
| 20260901104043 | 65 | 258 | 7.0 | 12.0 | 0.00 | 0.02 | 0.00 | 66 | 1026.9 |
| 20260901103042 | 65 | 258 | 8.0 | 13.0 | 0.00 | 0.02 | 0.00 | 68 | 1026.9 |
| 20260901102042 | 64 | 255 | 9.0 | 15.0 | 0.00 | 0.07 | 0.00 | 67 | 1026.9 |
| 20260901101044 | 64 | 236 | 10.0 | 17.0 | 0.00 | 0.07 | 0.00 | 70 | 1026.9 |
| 20260901100045 | 64 | 232 | 8.0 | 15.0 | 0.00 | 0.07 | 0.00 | 70 | 1026.9 |
| 20260901095043 | 65 | 239 | 9.0 | 14.0 | 0.00 | 0.07 | 0.00 | 69 | 1026.8 |
| 20260901094042 | 66 | 234 | 9.0 | 14.0 | 0.00 | 0.07 | 0.00 | 68 | 1026.6 |
| 20260901093041 | 64 | 230 | 8.0 | 13.0 | 0.00 | 0.07 | 0.00 | 72 | 1026.7 |
| 20260901092043 | 64 | 238 | 8.0 | 13.0 | 0.00 | 0.07 | 0.00 | 72 | 1026.7 |
| 20260901091043 | 64 | 250 | 8.0 | 14.0 | 0.00 | 0.07 | 0.00 | 75 | 1026.7 |
| 20260901090043 | 63 | 250 | 7.0 | 13.0 | 0.00 | 0.07 | 0.00 | 77 | 1026.7 |
| 20260901085042 | 62 | 260 | 8.0 | 13.0 | 0.00 | 0.07 | 0.00 | 78 | 1026.7 |
| 20260901084041 | 62 | 239 | 7.0 | 14.0 | 0.00 | 0.07 | 0.00 | 79 | 1026.7 |
| 20260901083042 | 62 | 234 | 7.0 | 12.0 | 0.00 | 0.07 | 0.00 | 81 | 1026.6 |
| 20260901082041 | 61 | 219 | 5.0 | 9.0 | 0.00 | 0.07 | 0.00 | 83 | 1026.7 |
| 20260901075043 | 60 | 232 | 6.0 | 9.0 | 0.00 | 0.07 | 0.00 | 88 | 1026.6 |
| 20260901074041 | 60 | 240 | 7.0 | 10.0 | 0.00 | 0.07 | 0.00 | 89 | 1026.5 |
| 20260901073040 | 59 | 232 | 6.0 | 11.0 | 0.00 | 0.07 | 0.00 | 90 | 1026.5 |
| 20260901072041 | 59 | 237 | 6.0 | 9.0 | 0.00 | 0.07 | 0.00 | 90 | 1026.4 |
| 20260901071042 | 59 | 243 | 6.0 | 9.0 | 0.00 | 0.07 | 0.00 | 91 | 1026.5 |
| 20260901070043 | 59 | 251 | 7.0 | 10.0 | 0.00 | 0.07 | 0.00 | 91 | 1026.5 |
| 20260901065041 | 59 | 249 | 5.0 | 11.0 | 0.00 | 0.07 | 0.00 | 91 | 1026.5 |
| 20260901064042 | 59 | 262 | 5.0 | 8.0 | 0.00 | 0.07 | 0.00 | 91 | 1026.4 |
| 20260901063041 | 59 | 255 | 6.0 | 9.0 | 0.00 | 0.07 | 0.00 | 91 | 1026.2 |
| 20260901062042 | 59 | 251 | 5.0 | 8.0 | 0.00 | 0.07 | 0.00 | 92 | 1026.2 |
| 20260901061043 | 58 | 251 | 5.0 | 7.0 | 0.00 | 0.07 | 0.00 | 92 | 1026.2 |
| 20260901060042 | 58 | 238 | 5.0 | 9.0 | 0.00 | 0.07 | 0.00 | 93 | 1026.1 |
| 20260901055041 | 58 | 238 | 6.0 | 10.0 | 0.00 | 0.07 | 0.00 | 93 | 1026.0 |
| 20260901054042 | 58 | 242 | 6.0 | 10.0 | 0.00 | 0.07 | 0.00 | 93 | 1026.0 |
| 20260901053041 | 58 | 247 | 6.0 | 10.0 | 0.00 | 0.07 | 0.00 | 93 | 1025.9 |
| 20260901052039 | 58 | 243 | 6.0 | 9.0 | 0.00 | 0.07 | 0.00 | 93 | 1025.8 |
| 20260901050042 | 57 | 251 | 7.0 | 10.0 | 0.00 | 0.07 | 0.00 | 93 | 1025.8 |
| 20260901045041 | 57 | 245 | 7.0 | 11.0 | 0.00 | 0.07 | 0.00 | 93 | 1025.7 |
| 20260901044040 | 57 | 246 | 6.0 | 9.0 | 0.00 | 0.07 | 0.00 | 92 | 1025.6 |